sensor_id;sensor_type;location;lat;lon;timestamp;P1;P2;P0
47591;PMS5003;33317;33.356;-117.184;2022-08-19T00:02:07;1;1;
47591;PMS5003;33317;33.356;-117.184;2022-08-19T00:04:35;2;2;
47591;PMS5003;33317;33.356;-117.184;2022-08-19T00:07:05;1;1;
47591;PMS5003;33317;33.356;-117.184;2022-08-19T00:09:42;1;1;
47591;PMS5003;33317;33.356;-117.184;2022-08-19T00:12:11;2;2;
47591;PMS5003;33317;33.356;-117.184;2022-08-19T00:14:39;2;2;
47591;PMS5003;33317;33.356;-117.184;2022-08-19T00:17:08;4;2;
47591;PMS5003;33317;33.356;-117.184;2022-08-19T00:19:38;0;0;
47591;PMS5003;33317;33.356;-117.184;2022-08-19T00:22:07;1;1;
47591;PMS5003;33317;33.356;-117.184;2022-08-19T00:24:36;2;1;
47591;PMS5003;33317;33.356;-117.184;2022-08-19T00:27:04;1;1;
47591;PMS5003;33317;33.356;-117.184;2022-08-19T00:29:33;0;0;
47591;PMS5003;33317;33.356;-117.184;2022-08-19T00:32:01;2;2;
47591;PMS5003;33317;33.356;-117.184;2022-08-19T00:34:29;3;3;
47591;PMS5003;33317;33.356;-117.184;2022-08-19T00:36:58;1;1;
47591;PMS5003;33317;33.356;-117.184;2022-08-19T00:39:27;1;1;
47591;PMS5003;33317;33.356;-117.184;2022-08-19T00:41:55;2;1;
47591;PMS5003;33317;33.356;-117.184;2022-08-19T00:44:25;1;1;
47591;PMS5003;33317;33.356;-117.184;2022-08-19T00:46:56;4;4;
47591;PMS5003;33317;33.356;-117.184;2022-08-19T00:49:27;2;2;
47591;PMS5003;33317;33.356;-117.184;2022-08-19T00:51:58;3;2;
47591;PMS5003;33317;33.356;-117.184;2022-08-19T00:54:31;1;1;
47591;PMS5003;33317;33.356;-117.184;2022-08-19T00:57:00;1;1;
47591;PMS5003;33317;33.356;-117.184;2022-08-19T00:59:31;2;1;
47591;PMS5003;33317;33.356;-117.184;2022-08-19T01:02:02;2;1;
47591;PMS5003;33317;33.356;-117.184;2022-08-19T01:04:33;1;1;
47591;PMS5003;33317;33.356;-117.184;2022-08-19T01:07:02;2;2;
47591;PMS5003;33317;33.356;-117.184;2022-08-19T01:09:31;2;2;
47591;PMS5003;33317;33.356;-117.184;2022-08-19T01:12:00;1;1;
47591;PMS5003;33317;33.356;-117.184;2022-08-19T01:14:35;0;0;
47591;PMS5003;33317;33.356;-117.184;2022-08-19T01:17:11;1;1;
47591;PMS5003;33317;33.356;-117.184;2022-08-19T01:19:57;4;2;
47591;PMS5003;33317;33.356;-117.184;2022-08-19T01:22:27;3;3;
47591;PMS5003;33317;33.356;-117.184;2022-08-19T01:24:57;1;1;
47591;PMS5003;33317;33.356;-117.184;2022-08-19T01:27:27;1;1;
47591;PMS5003;33317;33.356;-117.184;2022-08-19T01:30:06;2;2;
47591;PMS5003;33317;33.356;-117.184;2022-08-19T01:32:37;2;2;
47591;PMS5003;33317;33.356;-117.184;2022-08-19T01:35:06;0;0;
47591;PMS5003;33317;33.356;-117.184;2022-08-19T01:37:46;1;1;
47591;PMS5003;33317;33.356;-117.184;2022-08-19T01:40:52;1;1;
47591;PMS5003;33317;33.356;-117.184;2022-08-19T01:43:21;1;1;
47591;PMS5003;33317;33.356;-117.184;2022-08-19T01:45:55;2;2;
47591;PMS5003;33317;33.356;-117.184;2022-08-19T01:48:24;2;1;
47591;PMS5003;33317;33.356;-117.184;2022-08-19T01:50:52;3;2;
47591;PMS5003;33317;33.356;-117.184;2022-08-19T01:53:21;1;1;
47591;PMS5003;33317;33.356;-117.184;2022-08-19T01:55:49;3;3;
47591;PMS5003;33317;33.356;-117.184;2022-08-19T01:58:19;2;2;
47591;PMS5003;33317;33.356;-117.184;2022-08-19T02:00:50;2;2;
47591;PMS5003;33317;33.356;-117.184;2022-08-19T02:03:19;1;1;
47591;PMS5003;33317;33.356;-117.184;2022-08-19T02:05:47;2;2;
47591;PMS5003;33317;33.356;-117.184;2022-08-19T02:08:21;3;2;
47591;PMS5003;33317;33.356;-117.184;2022-08-19T02:10:49;4;3;
47591;PMS5003;33317;33.356;-117.184;2022-08-19T02:13:18;3;3;
47591;PMS5003;33317;33.356;-117.184;2022-08-19T02:15:48;1;1;
47591;PMS5003;33317;33.356;-117.184;2022-08-19T02:18:18;3;3;
47591;PMS5003;33317;33.356;-117.184;2022-08-19T02:20:47;11;11;
47591;PMS5003;33317;33.356;-117.184;2022-08-19T02:23:16;12;11;
47591;PMS5003;33317;33.356;-117.184;2022-08-19T02:25:46;17;15;
47591;PMS5003;33317;33.356;-117.184;2022-08-19T02:28:15;16;14;
47591;PMS5003;33317;33.356;-117.184;2022-08-19T02:30:44;15;14;
47591;PMS5003;33317;33.356;-117.184;2022-08-19T02:33:13;15;14;
47591;PMS5003;33317;33.356;-117.184;2022-08-19T02:35:42;12;11;
47591;PMS5003;33317;33.356;-117.184;2022-08-19T02:38:11;14;13;
47591;PMS5003;33317;33.356;-117.184;2022-08-19T02:40:40;12;12;
47591;PMS5003;33317;33.356;-117.184;2022-08-19T02:43:16;11;11;
47591;PMS5003;33317;33.356;-117.184;2022-08-19T02:45:46;10;10;
47591;PMS5003;33317;33.356;-117.184;2022-08-19T02:48:16;10;10;
47591;PMS5003;33317;33.356;-117.184;2022-08-19T02:50:45;11;11;
47591;PMS5003;33317;33.356;-117.184;2022-08-19T02:53:15;7;7;
47591;PMS5003;33317;33.356;-117.184;2022-08-19T02:55:44;9;9;
47591;PMS5003;33317;33.356;-117.184;2022-08-19T02:58:14;8;7;
47591;PMS5003;33317;33.356;-117.184;2022-08-19T03:00:43;11;11;
47591;PMS5003;33317;33.356;-117.184;2022-08-19T03:03:24;8;8;
47591;PMS5003;33317;33.356;-117.184;2022-08-19T03:06:06;11;10;
47591;PMS5003;33317;33.356;-117.184;2022-08-19T03:08:38;7;6;
47591;PMS5003;33317;33.356;-117.184;2022-08-19T03:11:12;6;6;
47591;PMS5003;33317;33.356;-117.184;2022-08-19T03:13:42;7;6;
47591;PMS5003;33317;33.356;-117.184;2022-08-19T03:16:11;6;6;
47591;PMS5003;33317;33.356;-117.184;2022-08-19T03:18:45;7;7;
47591;PMS5003;33317;33.356;-117.184;2022-08-19T03:21:15;8;8;
47591;PMS5003;33317;33.356;-117.184;2022-08-19T03:23:49;10;9;
47591;PMS5003;33317;33.356;-117.184;2022-08-19T03:26:28;7;7;
47591;PMS5003;33317;33.356;-117.184;2022-08-19T03:29:06;7;6;
47591;PMS5003;33317;33.356;-117.184;2022-08-19T03:31:40;7;7;
47591;PMS5003;33317;33.356;-117.184;2022-08-19T03:34:10;6;6;
47591;PMS5003;33317;33.356;-117.184;2022-08-19T03:36:41;4;4;
47591;PMS5003;33317;33.356;-117.184;2022-08-19T03:39:10;7;7;
47591;PMS5003;33317;33.356;-117.184;2022-08-19T03:41:45;6;6;
47591;PMS5003;33317;33.356;-117.184;2022-08-19T03:44:21;12;12;
47591;PMS5003;33317;33.356;-117.184;2022-08-19T03:46:59;8;6;
47591;PMS5003;33317;33.356;-117.184;2022-08-19T03:49:31;7;6;
47591;PMS5003;33317;33.356;-117.184;2022-08-19T03:52:00;6;5;
47591;PMS5003;33317;33.356;-117.184;2022-08-19T03:54:30;8;5;
47591;PMS5003;33317;33.356;-117.184;2022-08-19T03:57:02;7;6;
47591;PMS5003;33317;33.356;-117.184;2022-08-19T03:59:38;5;5;
47591;PMS5003;33317;33.356;-117.184;2022-08-19T04:02:08;8;8;
47591;PMS5003;33317;33.356;-117.184;2022-08-19T04:04:41;6;6;
47591;PMS5003;33317;33.356;-117.184;2022-08-19T04:07:11;5;5;
47591;PMS5003;33317;33.356;-117.184;2022-08-19T04:09:41;11;7;
47591;PMS5003;33317;33.356;-117.184;2022-08-19T04:12:38;6;6;
47591;PMS5003;33317;33.356;-117.184;2022-08-19T04:15:11;5;4;
47591;PMS5003;33317;33.356;-117.184;2022-08-19T04:17:50;7;6;
47591;PMS5003;33317;33.356;-117.184;2022-08-19T04:20:25;3;3;
47591;PMS5003;33317;33.356;-117.184;2022-08-19T04:22:59;4;4;
47591;PMS5003;33317;33.356;-117.184;2022-08-19T04:25:34;4;4;
47591;PMS5003;33317;33.356;-117.184;2022-08-19T04:28:10;5;5;
47591;PMS5003;33317;33.356;-117.184;2022-08-19T04:30:41;2;2;
47591;PMS5003;33317;33.356;-117.184;2022-08-19T04:33:25;5;4;
47591;PMS5003;33317;33.356;-117.184;2022-08-19T04:35:58;8;6;
47591;PMS5003;33317;33.356;-117.184;2022-08-19T04:38:27;3;3;
47591;PMS5003;33317;33.356;-117.184;2022-08-19T04:40:55;2;2;
47591;PMS5003;33317;33.356;-117.184;2022-08-19T04:43:24;3;3;
47591;PMS5003;33317;33.356;-117.184;2022-08-19T04:45:58;2;2;
47591;PMS5003;33317;33.356;-117.184;2022-08-19T04:48:33;5;3;
47591;PMS5003;33317;33.356;-117.184;2022-08-19T04:51:07;4;3;
47591;PMS5003;33317;33.356;-117.184;2022-08-19T04:53:39;2;2;
47591;PMS5003;33317;33.356;-117.184;2022-08-19T04:56:09;4;4;
47591;PMS5003;33317;33.356;-117.184;2022-08-19T04:58:41;5;5;
47591;PMS5003;33317;33.356;-117.184;2022-08-19T05:01:18;3;3;
47591;PMS5003;33317;33.356;-117.184;2022-08-19T05:03:49;4;4;
47591;PMS5003;33317;33.356;-117.184;2022-08-19T05:06:19;5;5;
47591;PMS5003;33317;33.356;-117.184;2022-08-19T05:08:49;4;2;
47591;PMS5003;33317;33.356;-117.184;2022-08-19T05:11:25;5;3;
47591;PMS5003;33317;33.356;-117.184;2022-08-19T05:13:58;3;3;
47591;PMS5003;33317;33.356;-117.184;2022-08-19T05:16:27;4;3;
47591;PMS5003;33317;33.356;-117.184;2022-08-19T05:18:58;4;4;
47591;PMS5003;33317;33.356;-117.184;2022-08-19T05:21:27;3;3;
47591;PMS5003;33317;33.356;-117.184;2022-08-19T05:23:56;3;3;
47591;PMS5003;33317;33.356;-117.184;2022-08-19T05:26:25;5;5;
47591;PMS5003;33317;33.356;-117.184;2022-08-19T05:28:55;5;3;
47591;PMS5003;33317;33.356;-117.184;2022-08-19T05:31:27;4;3;
47591;PMS5003;33317;33.356;-117.184;2022-08-19T05:33:56;3;2;
47591;PMS5003;33317;33.356;-117.184;2022-08-19T05:36:28;6;6;
47591;PMS5003;33317;33.356;-117.184;2022-08-19T05:39:03;4;4;
47591;PMS5003;33317;33.356;-117.184;2022-08-19T05:41:32;3;3;
47591;PMS5003;33317;33.356;-117.184;2022-08-19T05:44:02;3;3;
47591;PMS5003;33317;33.356;-117.184;2022-08-19T05:46:31;6;5;
47591;PMS5003;33317;33.356;-117.184;2022-08-19T05:49:00;4;3;
47591;PMS5003;33317;33.356;-117.184;2022-08-19T05:51:28;7;5;
47591;PMS5003;33317;33.356;-117.184;2022-08-19T05:54:02;3;3;
47591;PMS5003;33317;33.356;-117.184;2022-08-19T05:56:31;4;3;
47591;PMS5003;33317;33.356;-117.184;2022-08-19T05:59:00;1;1;
47591;PMS5003;33317;33.356;-117.184;2022-08-19T06:01:29;4;4;
47591;PMS5003;33317;33.356;-117.184;2022-08-19T06:03:58;6;6;
47591;PMS5003;33317;33.356;-117.184;2022-08-19T06:06:26;3;3;
47591;PMS5003;33317;33.356;-117.184;2022-08-19T06:08:55;5;4;
47591;PMS5003;33317;33.356;-117.184;2022-08-19T06:11:32;3;3;
47591;PMS5003;33317;33.356;-117.184;2022-08-19T06:14:03;3;3;
47591;PMS5003;33317;33.356;-117.184;2022-08-19T06:16:35;4;4;
47591;PMS5003;33317;33.356;-117.184;2022-08-19T06:19:05;4;4;
47591;PMS5003;33317;33.356;-117.184;2022-08-19T06:21:36;5;3;
47591;PMS5003;33317;33.356;-117.184;2022-08-19T06:24:14;3;3;
47591;PMS5003;33317;33.356;-117.184;2022-08-19T06:26:47;2;2;
47591;PMS5003;33317;33.356;-117.184;2022-08-19T06:29:16;4;4;
47591;PMS5003;33317;33.356;-117.184;2022-08-19T06:31:49;4;3;
47591;PMS5003;33317;33.356;-117.184;2022-08-19T06:34:20;3;3;
47591;PMS5003;33317;33.356;-117.184;2022-08-19T06:36:49;4;2;
47591;PMS5003;33317;33.356;-117.184;2022-08-19T06:39:21;4;2;
47591;PMS5003;33317;33.356;-117.184;2022-08-19T06:41:52;3;3;
47591;PMS5003;33317;33.356;-117.184;2022-08-19T06:44:23;3;2;
47591;PMS5003;33317;33.356;-117.184;2022-08-19T06:46:52;3;3;
47591;PMS5003;33317;33.356;-117.184;2022-08-19T06:49:21;4;4;
47591;PMS5003;33317;33.356;-117.184;2022-08-19T06:51:56;3;3;
47591;PMS5003;33317;33.356;-117.184;2022-08-19T06:54:27;3;3;
47591;PMS5003;33317;33.356;-117.184;2022-08-19T06:56:57;2;2;
47591;PMS5003;33317;33.356;-117.184;2022-08-19T06:59:28;5;4;
47591;PMS5003;33317;33.356;-117.184;2022-08-19T07:01:59;6;5;
47591;PMS5003;33317;33.356;-117.184;2022-08-19T07:04:30;2;2;
47591;PMS5003;33317;33.356;-117.184;2022-08-19T07:07:02;3;3;
47591;PMS5003;33317;33.356;-117.184;2022-08-19T07:09:33;4;4;
47591;PMS5003;33317;33.356;-117.184;2022-08-19T07:12:01;7;6;
47591;PMS5003;33317;33.356;-117.184;2022-08-19T07:14:32;3;3;
47591;PMS5003;33317;33.356;-117.184;2022-08-19T07:17:00;4;4;
47591;PMS5003;33317;33.356;-117.184;2022-08-19T07:19:29;4;4;
47591;PMS5003;33317;33.356;-117.184;2022-08-19T07:21:58;3;3;
47591;PMS5003;33317;33.356;-117.184;2022-08-19T07:24:28;3;3;
47591;PMS5003;33317;33.356;-117.184;2022-08-19T07:27:00;6;4;
47591;PMS5003;33317;33.356;-117.184;2022-08-19T07:29:30;4;4;
47591;PMS5003;33317;33.356;-117.184;2022-08-19T07:32:01;4;4;
47591;PMS5003;33317;33.356;-117.184;2022-08-19T07:34:30;3;3;
47591;PMS5003;33317;33.356;-117.184;2022-08-19T07:37:04;4;4;
47591;PMS5003;33317;33.356;-117.184;2022-08-19T07:39:35;4;4;
47591;PMS5003;33317;33.356;-117.184;2022-08-19T07:42:05;4;3;
47591;PMS5003;33317;33.356;-117.184;2022-08-19T07:44:36;6;5;
47591;PMS5003;33317;33.356;-117.184;2022-08-19T07:47:06;5;4;
47591;PMS5003;33317;33.356;-117.184;2022-08-19T07:49:34;5;5;
47591;PMS5003;33317;33.356;-117.184;2022-08-19T07:52:04;2;2;
47591;PMS5003;33317;33.356;-117.184;2022-08-19T07:54:35;4;4;
47591;PMS5003;33317;33.356;-117.184;2022-08-19T07:57:06;3;3;
47591;PMS5003;33317;33.356;-117.184;2022-08-19T07:59:35;3;3;
47591;PMS5003;33317;33.356;-117.184;2022-08-19T08:02:03;3;2;
47591;PMS5003;33317;33.356;-117.184;2022-08-19T08:04:32;7;7;
47591;PMS5003;33317;33.356;-117.184;2022-08-19T08:07:01;4;4;
47591;PMS5003;33317;33.356;-117.184;2022-08-19T08:09:31;4;3;
47591;PMS5003;33317;33.356;-117.184;2022-08-19T08:12:04;4;4;
47591;PMS5003;33317;33.356;-117.184;2022-08-19T08:14:35;4;3;
47591;PMS5003;33317;33.356;-117.184;2022-08-19T08:17:06;5;4;
47591;PMS5003;33317;33.356;-117.184;2022-08-19T08:19:36;6;6;
47591;PMS5003;33317;33.356;-117.184;2022-08-19T08:22:05;4;4;
47591;PMS5003;33317;33.356;-117.184;2022-08-19T08:24:36;4;4;
47591;PMS5003;33317;33.356;-117.184;2022-08-19T08:27:04;4;4;
47591;PMS5003;33317;33.356;-117.184;2022-08-19T08:29:33;3;3;
47591;PMS5003;33317;33.356;-117.184;2022-08-19T08:32:02;3;3;
47591;PMS5003;33317;33.356;-117.184;2022-08-19T08:34:40;6;6;
47591;PMS5003;33317;33.356;-117.184;2022-08-19T08:37:08;5;5;
47591;PMS5003;33317;33.356;-117.184;2022-08-19T08:39:37;5;5;
47591;PMS5003;33317;33.356;-117.184;2022-08-19T08:42:07;3;3;
47591;PMS5003;33317;33.356;-117.184;2022-08-19T08:44:47;3;3;
47591;PMS5003;33317;33.356;-117.184;2022-08-19T08:47:25;4;4;
47591;PMS5003;33317;33.356;-117.184;2022-08-19T08:49:58;3;3;
47591;PMS5003;33317;33.356;-117.184;2022-08-19T08:52:32;4;3;
47591;PMS5003;33317;33.356;-117.184;2022-08-19T08:55:04;2;2;
47591;PMS5003;33317;33.356;-117.184;2022-08-19T08:57:49;7;5;
47591;PMS5003;33317;33.356;-117.184;2022-08-19T09:00:23;3;3;
47591;PMS5003;33317;33.356;-117.184;2022-08-19T09:02:54;3;2;
47591;PMS5003;33317;33.356;-117.184;2022-08-19T09:05:25;3;3;
47591;PMS5003;33317;33.356;-117.184;2022-08-19T09:08:04;4;4;
47591;PMS5003;33317;33.356;-117.184;2022-08-19T09:10:38;5;5;
47591;PMS5003;33317;33.356;-117.184;2022-08-19T09:13:13;5;4;
47591;PMS5003;33317;33.356;-117.184;2022-08-19T09:15:49;5;5;
47591;PMS5003;33317;33.356;-117.184;2022-08-19T09:18:23;8;7;
47591;PMS5003;33317;33.356;-117.184;2022-08-19T09:20:52;7;6;
47591;PMS5003;33317;33.356;-117.184;2022-08-19T09:23:20;4;4;
47591;PMS5003;33317;33.356;-117.184;2022-08-19T09:25:48;7;5;
47591;PMS5003;33317;33.356;-117.184;2022-08-19T09:28:16;4;4;
47591;PMS5003;33317;33.356;-117.184;2022-08-19T09:30:45;6;6;
47591;PMS5003;33317;33.356;-117.184;2022-08-19T09:33:13;6;5;
47591;PMS5003;33317;33.356;-117.184;2022-08-19T09:35:42;4;4;
47591;PMS5003;33317;33.356;-117.184;2022-08-19T09:38:10;4;4;
47591;PMS5003;33317;33.356;-117.184;2022-08-19T09:40:40;5;4;
47591;PMS5003;33317;33.356;-117.184;2022-08-19T09:43:08;6;5;
47591;PMS5003;33317;33.356;-117.184;2022-08-19T09:45:36;5;5;
47591;PMS5003;33317;33.356;-117.184;2022-08-19T09:48:05;6;6;
47591;PMS5003;33317;33.356;-117.184;2022-08-19T09:50:33;6;5;
47591;PMS5003;33317;33.356;-117.184;2022-08-19T09:53:02;4;4;
47591;PMS5003;33317;33.356;-117.184;2022-08-19T09:55:31;5;5;
47591;PMS5003;33317;33.356;-117.184;2022-08-19T09:58:00;6;5;
47591;PMS5003;33317;33.356;-117.184;2022-08-19T10:00:29;7;6;
47591;PMS5003;33317;33.356;-117.184;2022-08-19T10:02:59;3;3;
47591;PMS5003;33317;33.356;-117.184;2022-08-19T10:05:28;6;6;
47591;PMS5003;33317;33.356;-117.184;2022-08-19T10:07:56;6;5;
47591;PMS5003;33317;33.356;-117.184;2022-08-19T10:10:24;5;5;
47591;PMS5003;33317;33.356;-117.184;2022-08-19T10:12:53;5;5;
47591;PMS5003;33317;33.356;-117.184;2022-08-19T10:15:21;8;7;
47591;PMS5003;33317;33.356;-117.184;2022-08-19T10:17:49;7;6;
47591;PMS5003;33317;33.356;-117.184;2022-08-19T10:20:18;2;2;
47591;PMS5003;33317;33.356;-117.184;2022-08-19T10:22:47;7;7;
47591;PMS5003;33317;33.356;-117.184;2022-08-19T10:25:15;5;5;
47591;PMS5003;33317;33.356;-117.184;2022-08-19T10:27:44;3;3;
47591;PMS5003;33317;33.356;-117.184;2022-08-19T10:30:13;5;5;
47591;PMS5003;33317;33.356;-117.184;2022-08-19T10:32:41;7;7;
47591;PMS5003;33317;33.356;-117.184;2022-08-19T10:35:10;9;8;
47591;PMS5003;33317;33.356;-117.184;2022-08-19T10:37:40;5;5;
47591;PMS5003;33317;33.356;-117.184;2022-08-19T10:40:08;8;6;
47591;PMS5003;33317;33.356;-117.184;2022-08-19T10:42:37;6;5;
47591;PMS5003;33317;33.356;-117.184;2022-08-19T10:45:06;6;4;
47591;PMS5003;33317;33.356;-117.184;2022-08-19T10:47:35;4;4;
47591;PMS5003;33317;33.356;-117.184;2022-08-19T10:50:04;5;5;
47591;PMS5003;33317;33.356;-117.184;2022-08-19T10:52:33;4;4;
47591;PMS5003;33317;33.356;-117.184;2022-08-19T10:55:01;5;5;
47591;PMS5003;33317;33.356;-117.184;2022-08-19T10:57:31;3;3;
47591;PMS5003;33317;33.356;-117.184;2022-08-19T10:59:59;5;5;
47591;PMS5003;33317;33.356;-117.184;2022-08-19T11:02:28;3;3;
47591;PMS5003;33317;33.356;-117.184;2022-08-19T11:04:56;4;4;
47591;PMS5003;33317;33.356;-117.184;2022-08-19T11:07:24;8;6;
47591;PMS5003;33317;33.356;-117.184;2022-08-19T11:09:53;5;5;
47591;PMS5003;33317;33.356;-117.184;2022-08-19T11:12:22;6;6;
47591;PMS5003;33317;33.356;-117.184;2022-08-19T11:14:50;7;6;
47591;PMS5003;33317;33.356;-117.184;2022-08-19T11:17:18;6;6;
47591;PMS5003;33317;33.356;-117.184;2022-08-19T11:19:46;5;5;
47591;PMS5003;33317;33.356;-117.184;2022-08-19T11:22:15;4;4;
47591;PMS5003;33317;33.356;-117.184;2022-08-19T11:24:43;6;6;
47591;PMS5003;33317;33.356;-117.184;2022-08-19T11:27:12;5;5;
47591;PMS5003;33317;33.356;-117.184;2022-08-19T11:29:40;9;5;
47591;PMS5003;33317;33.356;-117.184;2022-08-19T11:32:09;6;6;
47591;PMS5003;33317;33.356;-117.184;2022-08-19T11:34:38;5;5;
47591;PMS5003;33317;33.356;-117.184;2022-08-19T11:37:07;5;5;
47591;PMS5003;33317;33.356;-117.184;2022-08-19T11:39:35;7;7;
47591;PMS5003;33317;33.356;-117.184;2022-08-19T11:42:05;8;7;
47591;PMS5003;33317;33.356;-117.184;2022-08-19T11:44:33;7;5;
47591;PMS5003;33317;33.356;-117.184;2022-08-19T11:47:01;5;5;
47591;PMS5003;33317;33.356;-117.184;2022-08-19T11:49:31;6;6;
47591;PMS5003;33317;33.356;-117.184;2022-08-19T11:51:59;6;4;
47591;PMS5003;33317;33.356;-117.184;2022-08-19T11:54:28;6;6;
47591;PMS5003;33317;33.356;-117.184;2022-08-19T11:56:56;10;6;
47591;PMS5003;33317;33.356;-117.184;2022-08-19T11:59:25;5;5;
47591;PMS5003;33317;33.356;-117.184;2022-08-19T12:01:53;5;5;
47591;PMS5003;33317;33.356;-117.184;2022-08-19T12:04:22;5;5;
47591;PMS5003;33317;33.356;-117.184;2022-08-19T12:06:50;4;3;
47591;PMS5003;33317;33.356;-117.184;2022-08-19T12:09:18;6;6;
47591;PMS5003;33317;33.356;-117.184;2022-08-19T12:11:46;7;7;
47591;PMS5003;33317;33.356;-117.184;2022-08-19T12:14:15;6;6;
47591;PMS5003;33317;33.356;-117.184;2022-08-19T12:16:44;4;4;
47591;PMS5003;33317;33.356;-117.184;2022-08-19T12:19:13;6;6;
47591;PMS5003;33317;33.356;-117.184;2022-08-19T12:21:41;4;4;
47591;PMS5003;33317;33.356;-117.184;2022-08-19T12:24:14;6;5;
47591;PMS5003;33317;33.356;-117.184;2022-08-19T12:26:48;9;6;
47591;PMS5003;33317;33.356;-117.184;2022-08-19T12:29:17;6;6;
47591;PMS5003;33317;33.356;-117.184;2022-08-19T12:31:50;4;4;
47591;PMS5003;33317;33.356;-117.184;2022-08-19T12:34:19;5;4;
47591;PMS5003;33317;33.356;-117.184;2022-08-19T12:36:47;7;6;
47591;PMS5003;33317;33.356;-117.184;2022-08-19T12:39:16;6;6;
47591;PMS5003;33317;33.356;-117.184;2022-08-19T12:41:44;7;7;
47591;PMS5003;33317;33.356;-117.184;2022-08-19T12:44:12;4;4;
47591;PMS5003;33317;33.356;-117.184;2022-08-19T12:46:46;5;5;
47591;PMS5003;33317;33.356;-117.184;2022-08-19T12:49:15;9;6;
47591;PMS5003;33317;33.356;-117.184;2022-08-19T12:51:43;5;5;
47591;PMS5003;33317;33.356;-117.184;2022-08-19T12:54:11;4;4;
47591;PMS5003;33317;33.356;-117.184;2022-08-19T12:56:45;7;5;
47591;PMS5003;33317;33.356;-117.184;2022-08-19T12:59:13;5;5;
47591;PMS5003;33317;33.356;-117.184;2022-08-19T13:01:41;5;5;
47591;PMS5003;33317;33.356;-117.184;2022-08-19T13:04:10;7;7;
47591;PMS5003;33317;33.356;-117.184;2022-08-19T13:06:38;6;5;
47591;PMS5003;33317;33.356;-117.184;2022-08-19T13:09:07;5;5;
47591;PMS5003;33317;33.356;-117.184;2022-08-19T13:11:36;6;6;
47591;PMS5003;33317;33.356;-117.184;2022-08-19T13:14:05;3;3;
47591;PMS5003;33317;33.356;-117.184;2022-08-19T13:16:33;6;6;
47591;PMS5003;33317;33.356;-117.184;2022-08-19T13:19:03;7;7;
47591;PMS5003;33317;33.356;-117.184;2022-08-19T13:21:31;7;7;
47591;PMS5003;33317;33.356;-117.184;2022-08-19T13:24:00;8;8;
47591;PMS5003;33317;33.356;-117.184;2022-08-19T13:26:28;5;5;
47591;PMS5003;33317;33.356;-117.184;2022-08-19T13:28:57;6;6;
47591;PMS5003;33317;33.356;-117.184;2022-08-19T13:31:27;6;5;
47591;PMS5003;33317;33.356;-117.184;2022-08-19T13:33:57;5;5;
47591;PMS5003;33317;33.356;-117.184;2022-08-19T13:36:25;7;7;
47591;PMS5003;33317;33.356;-117.184;2022-08-19T13:38:54;7;6;
47591;PMS5003;33317;33.356;-117.184;2022-08-19T13:41:22;8;8;
47591;PMS5003;33317;33.356;-117.184;2022-08-19T13:43:51;6;6;
47591;PMS5003;33317;33.356;-117.184;2022-08-19T13:46:19;7;6;
47591;PMS5003;33317;33.356;-117.184;2022-08-19T13:48:48;7;7;
47591;PMS5003;33317;33.356;-117.184;2022-08-19T13:51:16;5;4;
47591;PMS5003;33317;33.356;-117.184;2022-08-19T13:53:45;5;5;
47591;PMS5003;33317;33.356;-117.184;2022-08-19T13:56:15;5;5;
47591;PMS5003;33317;33.356;-117.184;2022-08-19T13:58:45;5;5;
47591;PMS5003;33317;33.356;-117.184;2022-08-19T14:01:18;5;5;
47591;PMS5003;33317;33.356;-117.184;2022-08-19T14:03:47;8;6;
47591;PMS5003;33317;33.356;-117.184;2022-08-19T14:06:16;5;5;
47591;PMS5003;33317;33.356;-117.184;2022-08-19T14:08:45;8;8;
47591;PMS5003;33317;33.356;-117.184;2022-08-19T14:11:14;8;8;
47591;PMS5003;33317;33.356;-117.184;2022-08-19T14:13:43;9;7;
47591;PMS5003;33317;33.356;-117.184;2022-08-19T14:16:12;11;8;
47591;PMS5003;33317;33.356;-117.184;2022-08-19T14:18:41;6;6;
47591;PMS5003;33317;33.356;-117.184;2022-08-19T14:21:14;9;8;
47591;PMS5003;33317;33.356;-117.184;2022-08-19T14:23:43;7;7;
47591;PMS5003;33317;33.356;-117.184;2022-08-19T14:26:14;6;6;
47591;PMS5003;33317;33.356;-117.184;2022-08-19T14:28:46;7;7;
47591;PMS5003;33317;33.356;-117.184;2022-08-19T14:31:17;5;5;
47591;PMS5003;33317;33.356;-117.184;2022-08-19T14:33:46;5;5;
47591;PMS5003;33317;33.356;-117.184;2022-08-19T14:36:23;6;6;
47591;PMS5003;33317;33.356;-117.184;2022-08-19T14:38:53;11;9;
47591;PMS5003;33317;33.356;-117.184;2022-08-19T14:41:21;8;8;
47591;PMS5003;33317;33.356;-117.184;2022-08-19T14:43:51;5;5;
47591;PMS5003;33317;33.356;-117.184;2022-08-19T14:46:21;7;7;
47591;PMS5003;33317;33.356;-117.184;2022-08-19T14:48:51;5;5;
47591;PMS5003;33317;33.356;-117.184;2022-08-19T14:51:23;6;6;
47591;PMS5003;33317;33.356;-117.184;2022-08-19T14:53:54;8;6;
47591;PMS5003;33317;33.356;-117.184;2022-08-19T14:56:23;8;7;
47591;PMS5003;33317;33.356;-117.184;2022-08-19T14:58:54;6;6;
47591;PMS5003;33317;33.356;-117.184;2022-08-19T15:01:23;7;7;
47591;PMS5003;33317;33.356;-117.184;2022-08-19T15:03:52;7;7;
47591;PMS5003;33317;33.356;-117.184;2022-08-19T15:06:21;7;7;
47591;PMS5003;33317;33.356;-117.184;2022-08-19T15:08:50;7;7;
47591;PMS5003;33317;33.356;-117.184;2022-08-19T15:11:21;6;6;
47591;PMS5003;33317;33.356;-117.184;2022-08-19T15:13:51;7;7;
47591;PMS5003;33317;33.356;-117.184;2022-08-19T15:16:21;8;8;
47591;PMS5003;33317;33.356;-117.184;2022-08-19T15:18:51;7;7;
47591;PMS5003;33317;33.356;-117.184;2022-08-19T15:21:22;8;8;
47591;PMS5003;33317;33.356;-117.184;2022-08-19T15:24:05;8;8;
47591;PMS5003;33317;33.356;-117.184;2022-08-19T15:26:33;7;7;
47591;PMS5003;33317;33.356;-117.184;2022-08-19T15:29:03;6;6;
47591;PMS5003;33317;33.356;-117.184;2022-08-19T15:31:40;10;10;
47591;PMS5003;33317;33.356;-117.184;2022-08-19T15:34:17;10;9;
47591;PMS5003;33317;33.356;-117.184;2022-08-19T15:36:46;10;10;
47591;PMS5003;33317;33.356;-117.184;2022-08-19T15:39:15;8;8;
47591;PMS5003;33317;33.356;-117.184;2022-08-19T15:41:48;7;7;
47591;PMS5003;33317;33.356;-117.184;2022-08-19T15:44:18;6;5;
47591;PMS5003;33317;33.356;-117.184;2022-08-19T15:46:47;8;8;
47591;PMS5003;33317;33.356;-117.184;2022-08-19T15:49:16;7;6;
47591;PMS5003;33317;33.356;-117.184;2022-08-19T15:51:46;8;8;
47591;PMS5003;33317;33.356;-117.184;2022-08-19T15:54:16;6;6;
47591;PMS5003;33317;33.356;-117.184;2022-08-19T15:56:46;7;7;
47591;PMS5003;33317;33.356;-117.184;2022-08-19T15:59:16;6;6;
47591;PMS5003;33317;33.356;-117.184;2022-08-19T16:01:44;6;6;
47591;PMS5003;33317;33.356;-117.184;2022-08-19T16:04:12;8;8;
47591;PMS5003;33317;33.356;-117.184;2022-08-19T16:06:43;9;8;
47591;PMS5003;33317;33.356;-117.184;2022-08-19T16:09:13;7;6;
47591;PMS5003;33317;33.356;-117.184;2022-08-19T16:11:44;7;6;
47591;PMS5003;33317;33.356;-117.184;2022-08-19T16:14:12;7;7;
47591;PMS5003;33317;33.356;-117.184;2022-08-19T16:16:42;6;6;
47591;PMS5003;33317;33.356;-117.184;2022-08-19T16:19:11;8;7;
47591;PMS5003;33317;33.356;-117.184;2022-08-19T16:21:40;7;6;